createdAt,value
2023-11-08T00:00:40.845Z,7.23
2023-11-08T00:03:10.084Z,7.24
2023-11-08T00:05:45.197Z,6.96
2023-11-08T00:08:11.672Z,7.18
2023-11-08T00:10:47.729Z,7.34
2023-11-08T00:13:14.114Z,7.20
2023-11-08T00:15:40.588Z,7.21
2023-11-08T00:18:10.097Z,7.32
2023-11-08T00:20:36.575Z,7.19
2023-11-08T00:23:03.012Z,7.25
2023-11-08T00:25:29.413Z,7.32
2023-11-08T00:27:55.929Z,7.41
2023-11-08T00:30:44.640Z,7.41
2023-11-08T00:33:12.768Z,7.13
2023-11-08T00:35:40.787Z,7.16
2023-11-08T00:38:16.624Z,7.18
2023-11-08T00:40:43.123Z,7.39
2023-11-08T00:43:14.355Z,7.23
2023-11-08T00:45:44.201Z,7.12
2023-11-08T00:48:10.800Z,7.04
2023-11-08T00:50:43.185Z,7.10
2023-11-08T00:53:14.741Z,7.04
2023-11-08T00:55:41.373Z,7.09
2023-11-08T00:58:11.525Z,7.04
2023-11-08T01:00:40.728Z,7.25
2023-11-08T01:03:07.357Z,7.02
2023-11-08T01:05:33.940Z,7.16
2023-11-08T01:08:02.980Z,7.18
2023-11-08T01:10:29.441Z,7.01
2023-11-08T01:12:56.641Z,7.08
2023-11-08T01:15:23.110Z,7.14
2023-11-08T01:17:49.669Z,7.18
2023-11-08T01:20:16.161Z,7.22
2023-11-08T01:22:42.558Z,7.21
2023-11-08T01:25:12.800Z,6.90
2023-11-08T01:27:59.657Z,7.13
2023-11-08T01:30:26.345Z,7.22
2023-11-08T01:33:02.109Z,6.90
2023-11-08T01:35:28.531Z,7.17
2023-11-08T01:38:00.473Z,6.88
2023-11-08T01:40:27.091Z,7.13
2023-11-08T01:42:56.724Z,6.79
2023-11-08T01:45:23.332Z,7.13
2023-11-08T01:48:13.272Z,6.91
2023-11-08T01:50:54.791Z,6.93
2023-11-08T01:53:21.863Z,6.67
2023-11-08T01:55:48.436Z,6.89
2023-11-08T01:58:20.651Z,6.72
2023-11-08T02:00:50.531Z,6.97
2023-11-08T02:03:20.394Z,6.81
2023-11-08T02:05:46.864Z,6.78
2023-11-08T02:08:16.393Z,6.58
2023-11-08T02:11:13.201Z,6.79
2023-11-08T02:13:29.957Z,6.73
2023-11-08T02:15:56.461Z,6.76
2023-11-08T02:18:27.209Z,6.90
2023-11-08T02:20:54.294Z,6.80
2023-11-08T02:23:26.529Z,6.88
2023-11-08T02:26:02.900Z,6.81
2023-11-08T02:28:29.377Z,6.89
2023-11-08T02:30:56.692Z,6.72
2023-11-08T02:33:28.016Z,6.96
2023-11-08T02:35:55.142Z,6.65
2023-11-08T02:38:24.510Z,6.86
2023-11-08T02:40:55.922Z,6.96
2023-11-08T02:43:22.861Z,6.66
2023-11-08T02:45:51.351Z,6.92
2023-11-08T02:48:23.452Z,6.78
2023-11-08T02:50:51.760Z,6.62
2023-11-08T02:53:18.350Z,6.65
2023-11-08T02:55:44.753Z,6.95
2023-11-08T02:58:11.261Z,6.88
2023-11-08T03:00:41.775Z,6.87
2023-11-08T03:03:10.968Z,6.70
2023-11-08T03:05:37.493Z,6.85
2023-11-08T03:08:04.284Z,6.81
2023-11-08T03:10:35.366Z,6.85
2023-11-08T03:13:05.660Z,6.83
2023-11-08T03:15:32.627Z,6.78
2023-11-08T03:18:04.732Z,6.61
2023-11-08T03:20:31.242Z,6.62
2023-11-08T03:22:57.736Z,6.83
2023-11-08T03:25:26.284Z,6.75
2023-11-08T03:27:52.819Z,6.93
2023-11-08T03:30:19.283Z,6.99
2023-11-08T03:32:46.169Z,6.99
2023-11-08T03:35:13.362Z,6.72
2023-11-08T03:37:45.585Z,6.82
2023-11-08T03:40:14.483Z,7.04
2023-11-08T03:42:46.699Z,6.91
2023-11-08T03:45:21.730Z,7.07
2023-11-08T03:47:49.350Z,6.87
2023-11-08T03:50:15.850Z,7.01
2023-11-08T03:52:42.412Z,6.89
2023-11-08T03:55:12.693Z,7.04
2023-11-08T03:57:42.188Z,6.79
2023-11-08T04:00:14.270Z,7.04
2023-11-08T04:02:43.661Z,6.88
2023-11-08T04:05:12.885Z,6.79
2023-11-08T04:07:42.394Z,6.81
2023-11-08T04:10:15.067Z,6.67
2023-11-08T04:12:41.879Z,6.79
2023-11-08T04:15:25.212Z,7.11
2023-11-08T04:17:51.794Z,6.76
2023-11-08T04:20:18.410Z,7.03
2023-11-08T04:22:51.258Z,6.98
2023-11-08T04:25:17.632Z,7.07
2023-11-08T04:27:50.148Z,7.04
2023-11-08T04:30:16.937Z,6.90
2023-11-08T04:32:43.456Z,7.04
2023-11-08T04:35:19.185Z,6.95
2023-11-08T04:37:45.650Z,6.96
2023-11-08T04:40:12.307Z,7.07
2023-11-08T04:42:42.383Z,7.11
2023-11-08T04:45:11.544Z,7.14
2023-11-08T04:47:37.967Z,7.28
2023-11-08T04:50:04.720Z,7.19
2023-11-08T04:52:31.216Z,7.09
2023-11-08T04:54:59.231Z,7.25
2023-11-08T04:57:25.714Z,7.25
2023-11-08T04:59:52.601Z,7.24
2023-11-08T05:02:24.135Z,7.26
2023-11-08T05:04:50.982Z,7.28
2023-11-08T05:07:18.072Z,7.16
2023-11-08T05:09:45.138Z,7.16
2023-11-08T05:12:12.596Z,7.07
2023-11-08T05:14:41.385Z,7.29
2023-11-08T05:17:07.892Z,7.26
2023-11-08T05:19:37.307Z,7.14
2023-11-08T05:22:06.327Z,7.09
2023-11-08T05:24:32.782Z,7.15
2023-11-08T05:26:59.218Z,7.37
2023-11-08T05:29:28.400Z,7.38
2023-11-08T05:31:54.784Z,7.15
2023-11-08T05:34:23.567Z,7.28
2023-11-08T05:36:55.874Z,7.17
2023-11-08T05:39:26.571Z,7.41
2023-11-08T05:41:56.476Z,7.27
2023-11-08T05:44:36.285Z,7.40
2023-11-08T05:47:02.971Z,7.34
2023-11-08T05:49:29.459Z,7.21
2023-11-08T05:52:01.706Z,7.23
2023-11-08T05:54:28.168Z,7.09
2023-11-08T05:56:57.960Z,7.42
2023-11-08T05:59:26.908Z,7.40
2023-11-08T06:01:59.350Z,7.22
2023-11-08T06:04:26.239Z,7.26
2023-11-08T06:06:55.139Z,7.40
2023-11-08T06:09:21.793Z,7.13
2023-11-08T06:11:54.075Z,7.40
2023-11-08T06:14:33.480Z,7.14
2023-11-08T06:16:59.940Z,7.27
2023-11-08T06:19:26.627Z,7.42
2023-11-08T06:21:54.403Z,7.47
2023-11-08T06:24:20.985Z,7.32
2023-11-08T06:26:47.516Z,7.23
2023-11-08T06:29:14.060Z,7.28
2023-11-08T06:31:48.025Z,7.20
2023-11-08T06:34:17.810Z,7.26
2023-11-08T06:36:44.635Z,7.33
2023-11-08T06:39:15.419Z,7.01
2023-11-08T06:41:44.351Z,7.15
2023-11-08T06:44:10.798Z,6.96
2023-11-08T06:46:53.518Z,7.20
2023-11-08T06:49:21.115Z,6.83
2023-11-08T06:51:48.963Z,7.06
2023-11-08T06:54:15.544Z,7.00
2023-11-08T06:56:54.384Z,7.09
2023-11-08T06:59:20.815Z,6.98
2023-11-08T07:01:48.986Z,7.07
2023-11-08T07:04:16.924Z,6.98
2023-11-08T07:06:43.735Z,6.77
2023-11-08T07:09:17.359Z,6.93
2023-11-08T07:11:43.875Z,6.81
2023-11-08T07:14:12.367Z,6.95
2023-11-08T07:16:43.452Z,6.93
2023-11-08T07:19:17.333Z,6.80
2023-11-08T07:21:43.938Z,7.04
2023-11-08T07:24:11.383Z,7.10
2023-11-08T07:26:39.673Z,6.90
2023-11-08T07:29:06.141Z,7.15
2023-11-08T07:31:35.677Z,7.02
2023-11-08T07:34:02.175Z,7.14
2023-11-08T07:36:28.646Z,7.19
2023-11-08T07:38:55.175Z,7.20
2023-11-08T07:41:21.667Z,7.11
2023-11-08T07:43:48.626Z,7.22
2023-11-08T07:46:15.113Z,7.09
2023-11-08T07:48:55.840Z,7.16
2023-11-08T07:51:25.989Z,7.12
2023-11-08T07:53:55.429Z,7.19
2023-11-08T07:56:22.153Z,6.88
2023-11-08T07:58:48.657Z,6.98
2023-11-08T08:01:21.988Z,7.12
2023-11-08T08:03:49.523Z,7.10
2023-11-08T08:06:17.210Z,7.28
2023-11-08T08:08:44.033Z,7.33
2023-11-08T08:11:14.623Z,7.19
2023-11-08T08:13:44.372Z,7.23
2023-11-08T08:16:10.907Z,7.25
2023-11-08T08:18:41.865Z,7.33
2023-11-08T08:21:10.666Z,7.16
2023-11-08T08:23:37.267Z,7.37
2023-11-08T08:26:05.640Z,7.40
2023-11-08T08:28:34.835Z,7.33
2023-11-08T08:31:09.550Z,7.37
2023-11-08T08:33:37.621Z,7.30
2023-11-08T08:36:05.781Z,7.24
2023-11-08T08:38:32.466Z,7.27
2023-11-08T08:40:58.930Z,7.24
2023-11-08T08:43:27.882Z,7.28
2023-11-08T08:45:54.303Z,7.50
2023-11-08T08:48:20.766Z,7.56
2023-11-08T08:50:47.263Z,7.76
2023-11-08T08:53:13.798Z,7.56
2023-11-08T08:55:43.730Z,7.76
2023-11-08T08:58:13.031Z,7.79
2023-11-08T09:00:48.622Z,8.06
2023-11-08T09:03:16.858Z,8.09
2023-11-08T09:05:44.501Z,7.97
2023-11-08T09:08:11.023Z,7.98
2023-11-08T09:10:37.553Z,8.04
2023-11-08T09:13:06.984Z,7.98
2023-11-08T09:15:37.062Z,8.15
2023-11-08T09:18:03.559Z,8.12
2023-11-08T09:20:30.148Z,8.18
2023-11-08T09:22:56.667Z,8.30
2023-11-08T09:25:23.035Z,8.37
2023-11-08T09:27:59.887Z,8.34
2023-11-08T09:30:26.976Z,8.35
2023-11-08T09:32:53.513Z,8.35
2023-11-08T09:35:25.659Z,8.48
2023-11-08T09:37:57.888Z,8.31
2023-11-08T09:40:24.684Z,8.60
2023-11-08T09:42:51.224Z,8.37
2023-11-08T09:45:22.811Z,8.65
2023-11-08T09:47:50.599Z,8.59
2023-11-08T09:50:20.459Z,8.71
2023-11-08T09:52:51.071Z,8.90
2023-11-08T09:55:40.621Z,8.99
2023-11-08T09:58:10.872Z,9.15
2023-11-08T10:00:37.985Z,8.99
2023-11-08T10:03:20.199Z,9.09
2023-11-08T10:05:47.042Z,9.21
2023-11-08T10:08:13.722Z,9.23
2023-11-08T10:10:46.763Z,9.30
2023-11-08T10:13:13.336Z,9.53
2023-11-08T10:15:41.506Z,9.15
2023-11-08T10:19:32.938Z,9.32
2023-11-08T10:21:05.753Z,9.31
2023-11-08T10:23:36.291Z,9.33
2023-11-08T10:26:15.470Z,9.40
2023-11-08T10:29:00.874Z,9.45
2023-11-08T10:31:41.105Z,9.35
2023-11-08T10:34:17.593Z,9.28
2023-11-08T10:36:44.196Z,9.23
2023-11-08T10:39:14.068Z,9.37
2023-11-08T10:41:48.996Z,9.43
2023-11-08T10:44:20.905Z,9.40
2023-11-08T10:46:56.692Z,9.44
2023-11-08T10:49:26.403Z,9.57
2023-11-08T10:51:52.928Z,9.56
2023-11-08T10:54:19.696Z,9.70
2023-11-08T10:56:47.130Z,9.56
2023-11-08T10:59:21.742Z,9.58
2023-11-08T11:01:51.448Z,9.41
2023-11-08T11:04:22.172Z,8.99
2023-11-08T11:06:54.319Z,9.14
2023-11-08T11:09:23.586Z,9.18
2023-11-08T11:12:00.040Z,9.04
2023-11-08T11:17:26.812Z,9.30
2023-11-08T11:19:58.683Z,9.40
2023-11-08T11:22:25.260Z,9.65
2023-11-08T11:24:51.700Z,9.81
2023-11-08T11:27:34.788Z,10.03
2023-11-08T11:30:19.438Z,11.07
2023-11-08T11:32:51.697Z,11.18
2023-11-08T11:35:41.500Z,11.23
2023-11-08T11:38:07.916Z,10.81
2023-11-08T11:40:35.288Z,10.36
2023-11-08T11:43:01.758Z,10.03
2023-11-08T11:45:32.279Z,10.08
2023-11-08T11:47:58.783Z,9.95
2023-11-08T11:50:33.696Z,9.82
2023-11-08T11:53:05.037Z,9.70
2023-11-08T11:55:34.423Z,9.58
2023-11-08T11:58:04.294Z,10.03
2023-11-08T12:00:32.004Z,10.30
2023-11-08T12:02:59.722Z,10.36
2023-11-08T12:08:06.864Z,9.96
2023-11-08T12:10:33.255Z,10.02
2023-11-08T12:12:59.713Z,10.12
2023-11-08T12:15:31.601Z,10.19
2023-11-08T12:18:01.183Z,10.21
2023-11-08T12:20:30.394Z,10.09
2023-11-08T12:22:58.082Z,10.32
2023-11-08T12:25:27.200Z,10.43
2023-11-08T12:27:57.522Z,10.35
2023-11-08T12:30:25.568Z,10.40
2023-11-08T12:32:52.246Z,10.69
2023-11-08T12:35:18.777Z,10.49
2023-11-08T12:37:50.094Z,10.44
2023-11-08T12:40:21.068Z,10.32
2023-11-08T12:42:50.010Z,10.33
2023-11-08T12:46:34.156Z,10.22
2023-11-08T12:48:20.471Z,10.09
2023-11-08T12:50:50.181Z,10.10
2023-11-08T12:53:18.828Z,10.08
2023-11-08T12:55:53.411Z,9.99
2023-11-08T12:58:30.535Z,10.14
2023-11-08T13:01:01.336Z,9.98
2023-11-08T13:03:34.100Z,9.99
2023-11-08T13:06:03.160Z,9.94
2023-11-08T13:08:36.025Z,9.88
2023-11-08T13:11:02.607Z,9.79
2023-11-08T13:13:29.205Z,9.74
2023-11-08T13:15:56.434Z,9.57
2023-11-08T13:18:29.212Z,9.70
2023-11-08T13:20:55.745Z,9.66
2023-11-08T13:24:00.322Z,9.49
2023-11-08T13:26:11.451Z,9.54
2023-11-08T13:28:40.704Z,9.67
2023-11-08T13:31:12.242Z,9.42
2023-11-08T13:33:45.022Z,9.49
2023-11-08T13:36:11.776Z,9.59
2023-11-08T13:38:41.093Z,9.68
2023-11-08T13:41:10.705Z,9.68
2023-11-08T13:44:00.175Z,9.46
2023-11-08T13:46:24.464Z,9.46
2023-11-08T13:48:51.047Z,9.54
2023-11-08T13:51:17.689Z,9.46
2023-11-08T13:56:36.956Z,9.26
2023-11-08T13:59:03.595Z,9.13
2023-11-08T14:01:29.996Z,9.28
2023-11-08T14:03:56.482Z,9.44
2023-11-08T14:06:23.009Z,9.43
2023-11-08T14:08:52.653Z,9.49
2023-11-08T14:11:22.567Z,9.35
2023-11-08T14:13:49.126Z,9.35
2023-11-08T14:16:15.732Z,9.35
2023-11-08T14:18:42.620Z,9.39
2023-11-08T14:21:11.926Z,9.18
2023-11-08T14:23:44.949Z,9.06
2023-11-08T14:26:13.511Z,9.30
2023-11-08T14:28:42.964Z,9.11
2023-11-08T14:31:12.559Z,9.18
2023-11-08T14:33:46.803Z,8.99
2023-11-08T14:36:19.157Z,8.97
2023-11-08T14:38:45.612Z,8.96
2023-11-08T14:41:12.058Z,8.86
2023-11-08T14:43:41.362Z,8.84
2023-11-08T14:46:08.220Z,8.90
2023-11-08T14:48:34.877Z,8.64
2023-11-08T14:51:01.915Z,8.68
2023-11-08T14:53:28.915Z,8.61
2023-11-08T14:55:55.599Z,8.51
2023-11-08T14:58:23.488Z,8.54
2023-11-08T15:00:50.220Z,8.51
2023-11-08T15:03:17.048Z,8.66
2023-11-08T15:05:48.996Z,8.57
2023-11-08T15:09:49.520Z,8.43
2023-11-08T15:11:04.965Z,8.32
2023-11-08T15:13:31.614Z,8.32
2023-11-08T15:15:58.154Z,8.50
2023-11-08T15:18:24.785Z,8.42
2023-11-08T15:20:54.664Z,8.28
2023-11-08T15:23:21.346Z,8.44
2023-11-08T15:25:50.590Z,8.47
2023-11-08T15:28:17.159Z,8.47
2023-11-08T15:30:45.623Z,8.56
2023-11-08T15:33:15.212Z,8.43
2023-11-08T15:35:41.961Z,8.30
2023-11-08T15:38:10.504Z,8.42
2023-11-08T15:40:37.124Z,8.27
2023-11-08T15:43:04.005Z,8.24
2023-11-08T15:45:36.187Z,8.35
2023-11-08T15:48:02.775Z,8.42
2023-11-08T15:50:29.476Z,8.25
2023-11-08T15:52:58.513Z,8.38
2023-11-08T15:55:28.132Z,8.18
2023-11-08T15:57:54.795Z,8.24
2023-11-08T16:00:21.310Z,7.94
2023-11-08T16:02:52.224Z,7.93
2023-11-08T16:05:18.894Z,7.81
2023-11-08T16:07:45.532Z,8.04
2023-11-08T16:10:14.181Z,7.74
2023-11-08T16:12:43.648Z,7.99
2023-11-08T16:15:14.180Z,7.64
2023-11-08T16:17:50.645Z,7.57
2023-11-08T16:20:17.145Z,7.57
2023-11-08T16:22:43.569Z,7.73
2023-11-08T16:25:15.482Z,7.65
2023-11-08T16:27:41.990Z,7.86
2023-11-08T16:30:59.732Z,7.59
2023-11-08T16:33:18.666Z,7.53
2023-11-08T16:35:45.542Z,7.60
2023-11-08T16:38:20.954Z,7.62
2023-11-08T16:40:56.120Z,7.49
2023-11-08T16:45:58.524Z,7.45
2023-11-08T16:48:25.096Z,7.77
2023-11-08T16:50:54.882Z,7.46
2023-11-08T16:53:21.490Z,7.53
2023-11-08T16:55:50.804Z,7.50
2023-11-08T16:58:22.838Z,7.51
2023-11-08T17:00:51.867Z,7.42
2023-11-08T17:03:20.541Z,7.38
2023-11-08T17:05:47.446Z,7.42
2023-11-08T17:08:16.874Z,7.57
2023-11-08T17:10:46.608Z,7.44
2023-11-08T17:13:13.052Z,7.61
2023-11-08T17:15:42.276Z,7.53
2023-11-08T17:18:21.243Z,7.65
2023-11-08T17:20:47.736Z,7.60
2023-11-08T17:23:18.179Z,7.43
2023-11-08T17:25:44.666Z,7.70
2023-11-08T17:28:16.823Z,7.61
2023-11-08T17:30:49.495Z,7.49
2023-11-08T17:33:15.892Z,7.53
2023-11-08T17:38:22.672Z,7.55
2023-11-08T17:40:51.811Z,7.54
2023-11-08T17:43:21.475Z,7.69
2023-11-08T17:45:53.483Z,7.65
2023-11-08T17:48:19.866Z,7.67
2023-11-08T17:50:49.267Z,7.56
2023-11-08T17:53:18.407Z,7.49
2023-11-08T17:55:47.358Z,7.41
2023-11-08T17:58:19.257Z,7.45
2023-11-08T18:00:46.495Z,7.68
2023-11-08T18:03:18.616Z,7.50
2023-11-08T18:05:48.001Z,7.55
2023-11-08T18:08:14.649Z,7.72
2023-11-08T18:10:41.079Z,7.64
2023-11-08T18:13:35.661Z,7.64
2023-11-08T18:16:00.706Z,7.53
2023-11-08T18:18:29.654Z,7.52
2023-11-08T18:20:56.558Z,7.61
2023-11-08T18:23:23.285Z,7.71
2023-11-08T18:25:49.691Z,7.64
2023-11-08T18:28:19.133Z,7.80
2023-11-08T18:30:45.747Z,7.76
2023-11-08T18:33:40.023Z,7.93
2023-11-08T18:36:06.942Z,7.98
2023-11-08T18:38:34.591Z,7.88
2023-11-08T18:41:03.429Z,7.86
2023-11-08T18:43:32.809Z,7.90
2023-11-08T18:46:00.608Z,7.79
2023-11-08T18:48:34.874Z,7.77
2023-11-08T18:51:03.311Z,7.90
2023-11-08T18:53:37.233Z,7.91
2023-11-08T18:56:10.297Z,7.79
2023-11-08T18:58:37.458Z,8.09
2023-11-08T19:01:14.489Z,7.98
2023-11-08T19:03:41.328Z,8.11
2023-11-08T19:06:11.951Z,8.13
2023-11-08T19:08:42.576Z,7.93
2023-11-08T19:11:11.489Z,7.92
2023-11-08T19:13:37.999Z,7.96
2023-11-08T19:16:07.587Z,8.21
2023-11-08T19:18:35.875Z,7.97
2023-11-08T19:21:03.940Z,8.23
2023-11-08T19:23:30.512Z,7.95
2023-11-08T19:25:57.337Z,7.93
2023-11-08T19:28:27.673Z,8.09
2023-11-08T19:30:54.545Z,8.17
2023-11-08T19:33:21.190Z,8.28
2023-11-08T19:35:48.110Z,8.14
2023-11-08T19:38:17.602Z,8.18
2023-11-08T19:40:44.087Z,8.10
2023-11-08T19:43:36.907Z,8.23
2023-11-08T19:46:05.651Z,8.28
2023-11-08T19:48:32.249Z,8.07
2023-11-08T19:51:02.821Z,8.20
2023-11-08T19:53:31.833Z,8.44
2023-11-08T19:56:00.300Z,8.25
2023-11-08T19:58:29.475Z,8.20
2023-11-08T20:00:58.468Z,8.33
2023-11-08T20:03:25.046Z,8.33
2023-11-08T20:05:54.121Z,8.21
2023-11-08T20:08:27.019Z,8.27
2023-11-08T20:10:58.642Z,8.25
2023-11-08T20:13:28.001Z,8.28
2023-11-08T20:16:13.155Z,8.49
2023-11-08T20:18:42.594Z,8.36
2023-11-08T20:21:13.455Z,8.39
2023-11-08T20:23:42.603Z,8.58
2023-11-08T20:26:14.574Z,8.59
2023-11-08T20:28:43.962Z,8.44
2023-11-08T20:31:13.636Z,8.56
2023-11-08T20:33:43.707Z,8.61
2023-11-08T20:36:13.047Z,8.53
2023-11-08T20:38:44.980Z,8.51
2023-11-08T20:41:11.426Z,8.65
2023-11-08T20:43:37.976Z,8.35
2023-11-08T20:46:07.981Z,8.40
2023-11-08T20:48:34.867Z,8.52
2023-11-08T20:51:03.923Z,8.44
2023-11-08T20:53:43.178Z,8.38
2023-11-08T20:56:11.305Z,8.66
2023-11-08T20:58:52.243Z,8.70
2023-11-08T21:01:28.624Z,8.47
2023-11-08T21:03:55.174Z,8.58
2023-11-08T21:06:21.694Z,8.55
2023-11-08T21:08:48.175Z,8.67
2023-11-08T21:11:14.946Z,8.48
2023-11-08T21:13:42.640Z,8.65
2023-11-08T21:16:11.556Z,8.48
2023-11-08T21:18:40.318Z,8.77
2023-11-08T21:21:06.715Z,8.81
2023-11-08T21:23:35.013Z,8.71
2023-11-08T21:26:12.163Z,8.86
2023-11-08T21:28:41.219Z,8.75
2023-11-08T21:31:18.049Z,8.62
2023-11-08T21:33:47.299Z,8.62
2023-11-08T21:36:16.554Z,8.83
2023-11-08T21:38:46.213Z,8.77
2023-11-08T21:41:12.657Z,8.82
2023-11-08T21:43:42.460Z,8.82
2023-11-08T21:46:11.678Z,8.65
2023-11-08T21:48:40.053Z,8.69
2023-11-08T21:51:16.990Z,8.77
2023-11-08T21:53:46.728Z,8.63
2023-11-08T21:56:13.196Z,8.64
2023-11-08T21:58:44.935Z,8.72
2023-11-08T22:01:11.533Z,8.85
2023-11-08T22:03:43.697Z,8.71
2023-11-08T22:06:13.564Z,8.62
2023-11-08T22:09:21.533Z,8.66
2023-11-08T22:11:50.915Z,8.79
2023-11-08T22:14:17.882Z,8.97
2023-11-08T22:16:44.513Z,8.91
2023-11-08T22:19:10.993Z,8.88
2023-11-08T22:21:45.892Z,8.95
2023-11-08T22:24:21.902Z,9.00
2023-11-08T22:26:48.408Z,8.77
2023-11-08T22:29:14.913Z,9.03
2023-11-08T22:31:44.251Z,8.83
2023-11-08T22:34:11.074Z,9.07
2023-11-08T22:36:41.849Z,8.93
2023-11-08T22:39:17.364Z,9.05
2023-11-08T22:42:02.110Z,9.07
2023-11-08T22:44:28.539Z,9.02
2023-11-08T22:49:44.637Z,8.97
2023-11-08T22:52:11.866Z,9.03
2023-11-08T22:54:46.155Z,9.00
2023-11-08T22:57:15.080Z,9.08
2023-11-08T22:59:43.827Z,8.99
2023-11-08T23:02:13.155Z,8.99
2023-11-08T23:04:43.518Z,8.91
2023-11-08T23:07:12.942Z,9.06
2023-11-08T23:09:51.707Z,8.91
2023-11-08T23:12:23.773Z,9.11
2023-11-08T23:14:52.758Z,9.15
2023-11-08T23:17:25.169Z,8.92
2023-11-08T23:19:51.671Z,9.05
2023-11-08T23:22:24.305Z,9.12
2023-11-08T23:24:54.289Z,9.00
2023-11-08T23:30:05.629Z,8.88
2023-11-08T23:32:32.144Z,9.05
2023-11-08T23:34:58.700Z,8.94
2023-11-08T23:37:25.245Z,8.94
2023-11-08T23:39:55.941Z,9.04
2023-11-08T23:42:23.089Z,8.99
2023-11-08T23:44:49.631Z,9.17
2023-11-08T23:47:16.049Z,9.13
2023-11-08T23:49:55.026Z,8.99
2023-11-08T23:52:35.711Z,9.14
2023-11-08T23:55:02.226Z,9.21
2023-11-08T23:57:28.677Z,9.18
2023-11-08T23:59:57.460Z,9.08
